Mountainburg, Arkansas
Current Conditions -  °F | °C
As of 9:53 AM on Friday 21 Nov 2014 (Local Time) from KFSM Reporting Station
Overcast Overcast  
Wind Chill: 42°   Ceiling: 1300
Heat Index: 48°   Visibility: 10mi
Dew Point: 38°   Wind: 15mph
Humidity: 68%   Direction: 90°E
Pressure: 30.23"   Gusts: NA
Location:  35.64°N, 94.17°W
Report Text: KFSM 211553Z 09013KT 10SM OVC013 09/03 A3023 RMK AO2 SLP237 T00890033
Loading
Personal Weather Stations






























Interactive Weather Map New forecast layout! Learn more

10-Day Weather Forecast

Advertisements
Track Severe Weather on mobile